KBED/BED METAR and TAF weather

Enter ICAO airport designator
Station Type Date Time Source
KBED METAR 2019/02/23 02:56 UTC NOAA

KBED 230256Z 00000KT 10SM BKN200 M01/M07 A3040 RMK AO2 SLP309 T10111067 53012


Station Type Date Time Source
KBED Decoded METAR 2019/02/23 02:56 UTC NOAA

BEDFORD HANSCOM FIELD, MA, United States (KBED) 42-28N 071-18W 50M
Feb 22, 2019 - 09:56 PM EST / 2019.02.23 0256 UTC
Wind: Calm:0
Visibility: 10 mile(s):0
Sky conditions: mostly cloudy
Temperature: 30.0 F (-1.1 C)
Dew Point: 19.9 F (-6.7 C)
Relative Humidity: 65%
Pressure (altimeter): 30.4 in. Hg (1029 hPa)
Pressure tendency: 0.04 inches (1.2 hPa) higher than three hours ago
ob: KBED 230256Z 00000KT 10SM BKN200 M01/M07 A3040 RMK AO2 SLP309 T10111067 53012
cycle: 3

Station Type Date Time Source
KBED TAF 2019/02/23 03:06 UTC NOAA

TAF
AMD KBED 230305Z 2303/2324 00000KT P6SM BKN200
FM230700 00000KT P6SM FEW250


Example: see airport list